Terminal Aerodrome Forecast
Issued by NWS

Home | Current Version | Previous Version | Text Only | Print | Product List | Glossary On
Versions: 1 2 3 4 5 6 7 8 9 10 11 12 13 14
000
FTUS44 KBMX 021700 CCA
TAFANB
TAF COR
KANB 021734Z 0218/0318 03005KT 4SM -SHRA BR OVC008
     FM030300 VRB03KT 2SM -SHRA BR OVC003
     FM031500 13004KT 5SM -SHRA BR OVC008=

USA.gov is the U.S. government's official web portal to all federal, state and local government web resources and services.